Time Elevation Leg Distance Leg Time Leg Speed Leg Course Position
1 3/24/2007 15:03 3522 ft 2.6 mi 0:07:25 21 mph 13 true N35 26.122 W118 00.922
2 3/24/2007 15:10 3295 ft 4.6 mi 0:24:47 11 mph 27 true N35 28.301 W118 00.307
3 3/24/2007 15:35 3170 ft 0.1 mi 0:00:19 23 mph 353 true N35 31.872 W117 58.071
4 3/24/2007 15:35 3161 ft 0.3 mi 0:00:37 29 mph 49 true N35 31.978 W117 58.088
5 3/24/2007 15:36 3197 ft 1.1 mi 0:01:45 36 mph 31 true N35 32.149 W117 57.847
6 3/24/2007 15:38 3224 ft 0.7 mi 0:01:15 34 mph 20 true N35 32.930 W117 57.267
7 3/24/2007 15:39 3320 ft 5 ft 0:02:11 0.0 mph 132 true N35 33.515 W117 57.006
8 3/24/2007 15:41 3311 ft 0.3 mi 0:05:48 3 mph 312 true N35 33.514 W117 57.005
9 3/24/2007 15:47 3370 ft 1.3 mi 0:02:06 37 mph 241 true N35 33.681 W117 57.236
10 3/24/2007 15:49 3299 ft 1.0 mi 0:01:32 37 mph 257 true N35 33.129 W117 58.440
11 3/24/2007 15:50 3366 ft 0.1 mi 0:00:14 31 mph 239 true N35 32.945 W117 59.435
12 3/24/2007 15:51 3325 ft 0.2 mi 0:00:34 25 mph 219 true N35 32.890 W117 59.545
13 3/24/2007 15:51 3363 ft 0.6 mi 0:01:05 31 mph 195 true N35 32.734 W117 59.703
14 3/24/2007 15:52 3312 ft 0.7 mi 0:01:13 33 mph 244 true N35 32.261 W117 59.856
15 3/24/2007 15:54 3317 ft 0.7 mi 0:01:09 37 mph 217 true N35 32.009 W118 00.502
16 3/24/2007 15:55 3325 ft 0.2 mi 0:00:38 20 mph 237 true N35 31.515 W118 00.966
17 3/24/2007 15:55 3367 ft 322 ft 0:00:17 13 mph 186 true N35 31.417 W118 01.153
18 3/24/2007 15:56 3356 ft 1.3 mi 0:02:42 28 mph 358 true N35 31.364 W118 01.160
19 3/24/2007 15:58 3478 ft 1.5 mi 0:04:00 22 mph 324 true N35 32.467 W118 01.212
20 3/24/2007 16:02 3795 ft 1.0 mi 0:02:00 31 mph 266 true N35 33.521 W118 02.149
21 3/24/2007 16:04 3995 ft 1.0 mi 0:04:06 15 mph 293 true N35 33.458 W118 03.233
22 3/24/2007 16:08 4247 ft 1.4 mi 0:03:58 21 mph 283 true N35 33.800 W118 04.242
23 3/24/2007 16:12 4682 ft 0.5 mi 0:15:05 2 mph 307 true N35 34.067 W118 05.707
24 3/24/2007 16:27 4913 ft 0.5 mi 0:02:02 14 mph 129 true N35 34.341 W118 06.154
25 3/24/2007 16:30 4709 ft 1.5 mi 0:03:39 25 mph 103 true N35 34.077 W118 05.748
26 3/24/2007 16:33 4282 ft 1.5 mi 0:04:23 21 mph 283 true N35 33.769 W118 04.161
27 3/24/2007 16:38 4719 ft 0.5 mi 0:02:46 10 mph 306 true N35 34.078 W118 05.744
28 3/24/2007 16:40 4880 ft 0.2 mi 0:00:27 22 mph 337 true N35 34.307 W118 06.139
29 3/24/2007 16:41 4951 ft 0.2 mi 0:00:43 18 mph 265 true N35 34.438 W118 06.206
30 3/24/2007 16:41 4998 ft 0.5 mi 0:01:24 21 mph 298 true N35 34.421 W118 06.436
31 3/24/2007 16:43 5288 ft 0.4 mi 0:02:13 11 mph 88 true N35 34.622 W118 06.891
32 3/24/2007 16:45 5409 ft 0.2 mi 0:00:32 21 mph 307 true N35 34.633 W118 06.471
33 3/24/2007 16:46 5506 ft 0.2 mi 0:00:32 17 mph 270 true N35 34.729 W118 06.628
34 3/24/2007 16:46 5640 ft 0.2 mi 0:00:33 23 mph 313 true N35 34.729 W118 06.793
35 3/24/2007 16:47 5834 ft 0.2 mi 0:00:37 22 mph 302 true N35 34.853 W118 06.955
36 3/24/2007 16:47 6002 ft 0.2 mi 0:00:34 23 mph 266 true N35 34.959 W118 07.162
37 3/24/2007 16:48 6200 ft 24 ft 0:00:01 17 mph 254 true N35 34.947 W118 07.398
38 3/24/2007 16:48 6201 ft 0.2 mi 0:00:45 17 mph 38 true N35 34.946 W118 07.402
39 3/24/2007 16:49 6296 ft 0.1 mi 0:00:23 16 mph 93 true N35 35.094 W118 07.263
40 3/24/2007 16:49 6386 ft 0.2 mi 0:00:44 19 mph 81 true N35 35.089 W118 07.154
41 3/24/2007 16:50 6513 ft 345 ft 0:10:25 0.4 mph 5 true N35 35.121 W118 06.910
42 3/24/2007 17:00 6534 ft 0.1 mi 0:01:42 4 mph 18 true N35 35.178 W118 06.903
43 3/24/2007 17:02 6510 ft 0.1 mi 0:00:32 14 mph 66 true N35 35.280 W118 06.863
44 3/24/2007 17:02 6441 ft 0.4 mi 0:01:53 12 mph 323 true N35 35.325 W118 06.739
45 3/24/2007 17:04 6392 ft 0.2 mi 0:00:48 13 mph 9 true N35 35.590 W118 06.984
46 3/24/2007 17:05 6401 ft 0.1 mi 0:00:49 11 mph 313 true N35 35.744 W118 06.954
47 3/24/2007 17:06 6532 ft 426 ft 0:00:45 6 mph 66 true N35 35.831 W118 07.068
48 3/24/2007 17:07 6572 ft 0.2 mi 0:01:02 9 mph 2 true N35 35.859 W118 06.989
49 3/24/2007 17:08 6657 ft 0.2 mi 0:01:02 11 mph 316 true N35 35.998 W118 06.982
50 3/24/2007 17:09 6617 ft 0.3 mi 0:05:36 4 mph 350 true N35 36.113 W118 07.121
51 3/24/2007 17:14 6469 ft 0.7 mi 0:07:46 6 mph 33 true N35 36.395 W118 07.182
52 3/24/2007 17:22 6665 ft 1.0 mi 0:04:11 15 mph 69 true N35 36.917 W118 06.758
53 3/24/2007 17:26 6723 ft 0.5 mi 0:01:48 18 mph 103 true N35 37.242 W118 05.730
54 3/24/2007 17:28 6674 ft 0.7 mi 0:16:53 3 mph 74 true N35 37.138 W118 05.168
55 3/24/2007 17:45 6696 ft 58 ft 0:17:46 0.0 mph 34 true N35 37.314 W118 04.403
56 3/24/2007 18:03 6690 ft 0.8 mi 0:03:43 12 mph 254 true N35 37.321 W118 04.396
57 3/24/2007 18:06 6673 ft 0.5 mi 0:01:36 20 mph 284 true N35 37.137 W118 05.180
58 3/24/2007 18:08 6742 ft 1.0 mi 0:03:02 20 mph 248 true N35 37.248 W118 05.739
59 3/24/2007 18:11 6663 ft 0.7 mi 0:08:15 5 mph 214 true N35 36.921 W118 06.752
60 3/24/2007 18:19 6502 ft 0.5 mi 0:09:44 3 mph 159 true N35 36.407 W118 07.183
61 3/24/2007 18:29 6693 ft 0.1 mi 0:00:30 14 mph 140 true N35 36.015 W118 06.997
62 3/24/2007 18:30 6622 ft 0.1 mi 0:00:30 15 mph 218 true N35 35.937 W118 06.915
63 3/24/2007 18:30 6605 ft 358 ft 0:00:22 11 mph 247 true N35 35.854 W118 06.995
64 3/24/2007 18:30 6564 ft 0.7 mi 0:03:48 10 mph 153 true N35 35.831 W118 07.062
65 3/24/2007 18:34 6498 ft 0.3 mi 0:01:45 10 mph 214 true N35 35.321 W118 06.747
66 3/24/2007 18:36 6580 ft 0.3 mi 0:01:00 19 mph 266 true N35 35.122 W118 06.914
67 3/24/2007 18:37 6370 ft 0.2 mi 0:00:42 19 mph 216 true N35 35.100 W118 07.256
68 3/24/2007 18:38 6272 ft 0.2 mi 0:00:31 25 mph 84 true N35 34.941 W118 07.398
69 3/24/2007 18:38 6076 ft 0.2 mi 0:01:31 9 mph 128 true N35 34.959 W118 07.174
70 3/24/2007 18:40 5925 ft 0.3 mi 0:00:48 20 mph 122 true N35 34.840 W118 06.986
71 3/24/2007 18:41 5689 ft 0.1 mi 0:00:18 24 mph 88 true N35 34.716 W118 06.739
72 3/24/2007 18:41 5570 ft 0.2 mi 0:00:24 25 mph 127 true N35 34.720 W118 06.613
73 3/24/2007 18:41 5473 ft 0.4 mi 0:01:08 21 mph 267 true N35 34.633 W118 06.472
74 3/24/2007 18:42 5359 ft 0.7 mi 0:01:30 26 mph 108 true N35 34.618 W118 06.888
75 3/24/2007 18:44 5015 ft 0.2 mi 0:00:25 25 mph 153 true N35 34.436 W118 06.218
76 3/24/2007 18:44 4951 ft 0.5 mi 0:01:08 25 mph 124 true N35 34.301 W118 06.134
77 3/24/2007 18:45 4813 ft 0.4 mi 0:01:17 20 mph 109 true N35 34.069 W118 05.715
78 3/24/2007 18:47 4630 ft 1.0 mi 0:07:30 8 mph 100 true N35 33.945 W118 05.280
79 3/24/2007 18:54 4326 ft 0.8 mi 0:01:26 33 mph 113 true N35 33.797 W118 04.243
80 3/24/2007 18:56 4173 ft 0.3 mi 0:00:24 38 mph 111 true N35 33.534 W118 03.469
81 3/24/2007 18:56 4083 ft 1.0 mi 0:01:56 31 mph 86 true N35 33.455 W118 03.218
82 3/24/2007 18:58 3883 ft 1.5 mi 0:03:19 27 mph 144 true N35 33.521 W118 02.150
83 3/24/2007 19:01 3582 ft 209 ft 0:00:04 36 mph 143 true N35 32.487 W118 01.234
84 3/24/2007 19:01 3536 ft 1.3 mi 0:02:53 26 mph 178 true N35 32.459 W118 01.208
85 3/24/2007 19:04 3432 ft 0.5 mi 0:01:35 20 mph 198 true N35 31.356 W118 01.158
86 3/24/2007 19:06 3348 ft 1.1 mi 0:01:39 41 mph 166 true N35 30.922 W118 01.335
87 3/24/2007 19:07 3404 ft 0.7 mi 0:01:02 40 mph 150 true N35 29.969 W118 01.048
88 3/24/2007 19:09 3355 ft 0.5 mi 0:00:40 44 mph 186 true N35 29.451 W118 00.685
89 3/24/2007 19:09 3388 ft 0.3 mi 0:00:29 39 mph 191 true N35 29.030 W118 00.743
90 3/24/2007 19:10 3361 ft 1.5 mi 0:03:16 28 mph 145 true N35 28.760 W118 00.808
91 3/24/2007 19:13 3400 ft 0.7 mi 0:01:16 35 mph 326 true N35 27.684 W117 59.896
92 3/24/2007 19:14 3388 ft 0.9 mi 0:03:03 17 mph 195 true N35 28.210 W118 00.332
93 3/24/2007 19:17 3470 ft 1.7 mi 0:03:30 28 mph 193 true N35 27.466 W118 00.570
94 3/24/2007 19:21 3580 ft 0.5 mi 0:02:58 10 mph 212 true N35 26.062 W118 00.959
95 3/24/2007 19:24 3358 ft 0.1 mi 0:00:26 15 mph 254 true N35 25.710 W118 01.229
96 3/24/2007 19:24 3325 ft 0.2 mi 0:00:45 15 mph 322 true N35 25.685 W118 01.337
97 3/24/2007 19:25 3367 ft 0.2 mi 0:02:46 5 mph 124 true N35 25.815 W118 01.462
98 3/24/2007 19:28 3344 ft 0.2 mi 9:21:39 0.0 mph 304 true N35 25.701 W118 01.255
99 3/25/2007 4:49 3314 ft N35 25.815 W118 01.464